sensor_id;sensor_type;location;lat;lon;timestamp;pressure;altitude;pressure_sealevel;temperature;humidity
3260;BME280;22469;48.150;14.004;2023-03-14T00:02:14;96318.34;;;8.96;67.02
3260;BME280;22469;48.150;14.004;2023-03-14T00:04:41;96332.66;;;8.99;67.29
3260;BME280;22469;48.150;14.004;2023-03-14T00:07:11;96324.19;;;8.98;67.19
3260;BME280;22469;48.150;14.004;2023-03-14T00:09:40;96330.81;;;9.02;67.26
3260;BME280;22469;48.150;14.004;2023-03-14T00:12:08;96328.56;;;8.96;66.79
3260;BME280;22469;48.150;14.004;2023-03-14T00:14:36;96334.56;;;8.95;66.83
3260;BME280;22469;48.150;14.004;2023-03-14T00:17:03;96347.91;;;8.85;67.22
3260;BME280;22469;48.150;14.004;2023-03-14T00:19:30;96354.50;;;8.73;68.06
3260;BME280;22469;48.150;14.004;2023-03-14T00:21:57;96389.25;;;8.42;70.33
3260;BME280;22469;48.150;14.004;2023-03-14T00:24:24;96470.38;;;7.82;73.81
3260;BME280;22469;48.150;14.004;2023-03-14T00:26:51;96389.81;;;8.13;72.20
3260;BME280;22469;48.150;14.004;2023-03-14T00:29:18;96455.44;;;7.93;73.61
3260;BME280;22469;48.150;14.004;2023-03-14T00:31:45;96428.41;;;8.06;73.18
3260;BME280;22469;48.150;14.004;2023-03-14T00:34:12;96462.22;;;8.29;71.78
3260;BME280;22469;48.150;14.004;2023-03-14T00:36:40;96459.41;;;7.99;73.25
3260;BME280;22469;48.150;14.004;2023-03-14T00:39:06;96475.16;;;8.26;71.86
3260;BME280;22469;48.150;14.004;2023-03-14T00:41:33;96478.38;;;8.48;70.70
3260;BME280;22469;48.150;14.004;2023-03-14T00:44:00;96447.03;;;8.45;70.68
3260;BME280;22469;48.150;14.004;2023-03-14T00:46:28;96450.72;;;8.57;70.50
3260;BME280;22469;48.150;14.004;2023-03-14T00:48:55;96445.31;;;8.63;70.20
3260;BME280;22469;48.150;14.004;2023-03-14T00:51:22;96444.25;;;8.67;69.80
3260;BME280;22469;48.150;14.004;2023-03-14T00:53:49;96437.09;;;8.73;69.71
3260;BME280;22469;48.150;14.004;2023-03-14T00:56:19;96448.97;;;8.74;69.53
3260;BME280;22469;48.150;14.004;2023-03-14T00:58:45;96445.34;;;8.78;69.29
3260;BME280;22469;48.150;14.004;2023-03-14T01:01:18;96448.41;;;8.85;69.04
3260;BME280;22469;48.150;14.004;2023-03-14T01:03:46;96461.00;;;8.90;68.89
3260;BME280;22469;48.150;14.004;2023-03-14T01:06:15;96470.97;;;8.94;68.61
3260;BME280;22469;48.150;14.004;2023-03-14T01:08:45;96470.81;;;8.97;68.25
3260;BME280;22469;48.150;14.004;2023-03-14T01:11:16;96472.56;;;8.97;68.41
3260;BME280;22469;48.150;14.004;2023-03-14T01:13:45;96483.47;;;9.00;68.36
3260;BME280;22469;48.150;14.004;2023-03-14T01:16:13;96490.88;;;9.05;68.81
3260;BME280;22469;48.150;14.004;2023-03-14T01:18:42;96485.47;;;9.11;69.00
3260;BME280;22469;48.150;14.004;2023-03-14T01:23:47;96501.03;;;9.24;68.72
3260;BME280;22469;48.150;14.004;2023-03-14T01:26:16;96487.94;;;9.30;68.67
3260;BME280;22469;48.150;14.004;2023-03-14T01:28:46;96493.72;;;9.34;68.76
3260;BME280;22469;48.150;14.004;2023-03-14T01:31:14;96495.72;;;9.44;69.06
3260;BME280;22469;48.150;14.004;2023-03-14T01:33:42;96495.56;;;9.47;69.43
3260;BME280;22469;48.150;14.004;2023-03-14T01:36:10;96495.72;;;9.60;69.27
3260;BME280;22469;48.150;14.004;2023-03-14T01:38:38;96492.63;;;9.71;69.01
3260;BME280;22469;48.150;14.004;2023-03-14T01:41:08;96485.03;;;9.85;68.84
3260;BME280;22469;48.150;14.004;2023-03-14T01:43:40;96475.94;;;9.95;68.50
3260;BME280;22469;48.150;14.004;2023-03-14T01:48:38;96469.81;;;10.14;67.17
3260;BME280;22469;48.150;14.004;2023-03-14T01:51:13;96451.53;;;10.20;67.14
3260;BME280;22469;48.150;14.004;2023-03-14T01:53:49;96427.38;;;10.24;67.01
3260;BME280;22469;48.150;14.004;2023-03-14T01:56:18;96425.50;;;10.28;66.45
3260;BME280;22469;48.150;14.004;2023-03-14T01:58:48;96406.97;;;10.38;66.77
3260;BME280;22469;48.150;14.004;2023-03-14T02:01:20;96409.94;;;10.47;65.35
3260;BME280;22469;48.150;14.004;2023-03-14T02:03:56;96417.88;;;10.56;65.50
3260;BME280;22469;48.150;14.004;2023-03-14T02:06:33;96424.53;;;10.60;65.02
3260;BME280;22469;48.150;14.004;2023-03-14T02:09:05;96423.59;;;10.61;65.14
3260;BME280;22469;48.150;14.004;2023-03-14T02:11:32;96434.50;;;10.65;65.07
3260;BME280;22469;48.150;14.004;2023-03-14T02:14:01;96436.78;;;10.70;64.80
3260;BME280;22469;48.150;14.004;2023-03-14T02:16:28;96457.28;;;10.70;64.87
3260;BME280;22469;48.150;14.004;2023-03-14T02:18:55;96469.41;;;10.67;64.44
3260;BME280;22469;48.150;14.004;2023-03-14T02:24:44;96485.59;;;10.68;64.55
3260;BME280;22469;48.150;14.004;2023-03-14T02:27:37;96494.13;;;10.68;64.77
3260;BME280;22469;48.150;14.004;2023-03-14T02:30:19;96494.69;;;10.74;64.91
3260;BME280;22469;48.150;14.004;2023-03-14T02:33:12;96503.94;;;10.76;64.62
3260;BME280;22469;48.150;14.004;2023-03-14T02:41:14;96478.41;;;10.89;64.79
3260;BME280;22469;48.150;14.004;2023-03-14T02:43:41;96479.06;;;11.07;64.28
3260;BME280;22469;48.150;14.004;2023-03-14T02:46:14;96477.38;;;11.22;63.69
3260;BME280;22469;48.150;14.004;2023-03-14T02:48:56;96480.19;;;11.31;63.46
3260;BME280;22469;48.150;14.004;2023-03-14T02:51:26;96479.19;;;11.34;63.42
3260;BME280;22469;48.150;14.004;2023-03-14T02:53:54;96477.06;;;11.41;63.17
3260;BME280;22469;48.150;14.004;2023-03-14T02:56:21;96469.84;;;11.47;63.00
3260;BME280;22469;48.150;14.004;2023-03-14T02:58:48;96455.88;;;11.51;62.75
3260;BME280;22469;48.150;14.004;2023-03-14T03:01:15;96453.97;;;11.55;62.90
3260;BME280;22469;48.150;14.004;2023-03-14T03:03:42;96461.59;;;11.56;63.13
3260;BME280;22469;48.150;14.004;2023-03-14T03:06:09;96479.44;;;11.58;62.83
3260;BME280;22469;48.150;14.004;2023-03-14T03:08:36;96482.03;;;11.58;63.10
3260;BME280;22469;48.150;14.004;2023-03-14T03:11:04;96472.50;;;11.60;63.01
3260;BME280;22469;48.150;14.004;2023-03-14T03:13:31;96471.56;;;11.61;63.01
3260;BME280;22469;48.150;14.004;2023-03-14T03:15:58;96485.16;;;11.63;62.88
3260;BME280;22469;48.150;14.004;2023-03-14T03:18:25;96497.06;;;11.64;62.65
3260;BME280;22469;48.150;14.004;2023-03-14T03:20:52;96493.69;;;11.63;62.69
3260;BME280;22469;48.150;14.004;2023-03-14T03:23:19;96493.03;;;11.60;62.64
3260;BME280;22469;48.150;14.004;2023-03-14T03:25:50;96514.50;;;11.59;62.72
3260;BME280;22469;48.150;14.004;2023-03-14T03:28:18;96514.75;;;11.54;63.36
3260;BME280;22469;48.150;14.004;2023-03-14T03:30:46;96512.19;;;11.54;63.67
3260;BME280;22469;48.150;14.004;2023-03-14T03:33:14;96507.63;;;11.59;63.61
3260;BME280;22469;48.150;14.004;2023-03-14T03:35:46;96496.88;;;11.67;63.83
3260;BME280;22469;48.150;14.004;2023-03-14T03:38:16;96511.00;;;11.74;63.93
3260;BME280;22469;48.150;14.004;2023-03-14T03:40:43;96520.09;;;11.80;63.89
3260;BME280;22469;48.150;14.004;2023-03-14T03:43:10;96502.66;;;11.85;63.65
3260;BME280;22469;48.150;14.004;2023-03-14T03:45:37;96515.03;;;11.93;63.47
3260;BME280;22469;48.150;14.004;2023-03-14T03:48:04;96503.56;;;11.98;63.40
3260;BME280;22469;48.150;14.004;2023-03-14T03:50:32;96494.66;;;12.04;63.12
3260;BME280;22469;48.150;14.004;2023-03-14T03:52:59;96503.72;;;12.09;63.14
3260;BME280;22469;48.150;14.004;2023-03-14T03:55:26;96490.66;;;12.13;63.17
3260;BME280;22469;48.150;14.004;2023-03-14T03:57:54;96486.16;;;12.16;63.24
3260;BME280;22469;48.150;14.004;2023-03-14T04:00:21;96493.69;;;12.19;63.24
3260;BME280;22469;48.150;14.004;2023-03-14T04:02:48;96488.34;;;12.22;63.52
3260;BME280;22469;48.150;14.004;2023-03-14T04:05:16;96486.22;;;12.29;63.67
3260;BME280;22469;48.150;14.004;2023-03-14T04:07:43;96491.69;;;12.37;63.55
3260;BME280;22469;48.150;14.004;2023-03-14T04:10:10;96476.06;;;12.40;63.54
3260;BME280;22469;48.150;14.004;2023-03-14T04:12:38;96461.69;;;12.50;63.30
3260;BME280;22469;48.150;14.004;2023-03-14T04:15:05;96474.56;;;12.50;63.34
3260;BME280;22469;48.150;14.004;2023-03-14T04:17:33;96494.13;;;12.53;63.09
3260;BME280;22469;48.150;14.004;2023-03-14T04:20:00;96500.00;;;12.55;63.21
3260;BME280;22469;48.150;14.004;2023-03-14T04:22:27;96509.66;;;12.24;65.24
3260;BME280;22469;48.150;14.004;2023-03-14T04:24:54;96520.75;;;12.25;66.03
3260;BME280;22469;48.150;14.004;2023-03-14T04:27:21;96515.88;;;12.35;67.05
3260;BME280;22469;48.150;14.004;2023-03-14T04:29:48;96515.88;;;12.47;67.17
3260;BME280;22469;48.150;14.004;2023-03-14T04:32:15;96492.84;;;12.98;65.68
3260;BME280;22469;48.150;14.004;2023-03-14T04:34:42;96490.09;;;13.14;65.04
3260;BME280;22469;48.150;14.004;2023-03-14T04:37:09;96499.59;;;13.39;63.96
3260;BME280;22469;48.150;14.004;2023-03-14T04:39:36;96503.81;;;13.53;63.78
3260;BME280;22469;48.150;14.004;2023-03-14T04:42:04;96519.28;;;13.40;65.08
3260;BME280;22469;48.150;14.004;2023-03-14T04:44:31;96524.63;;;13.63;65.49
3260;BME280;22469;48.150;14.004;2023-03-14T04:46:58;96525.13;;;13.81;65.02
3260;BME280;22469;48.150;14.004;2023-03-14T04:49:25;96529.97;;;13.72;65.72
3260;BME280;22469;48.150;14.004;2023-03-14T04:51:52;96531.41;;;13.64;65.34
3260;BME280;22469;48.150;14.004;2023-03-14T04:54:19;96532.84;;;13.17;66.36
3260;BME280;22469;48.150;14.004;2023-03-14T04:56:46;96536.91;;;13.34;66.88
3260;BME280;22469;48.150;14.004;2023-03-14T04:59:13;96548.31;;;13.42;66.81
3260;BME280;22469;48.150;14.004;2023-03-14T05:01:40;96545.03;;;13.53;66.82
3260;BME280;22469;48.150;14.004;2023-03-14T05:04:07;96542.97;;;13.58;67.25
3260;BME280;22469;48.150;14.004;2023-03-14T05:06:34;96552.03;;;13.77;66.85
3260;BME280;22469;48.150;14.004;2023-03-14T05:09:02;96561.91;;;13.83;66.85
3260;BME280;22469;48.150;14.004;2023-03-14T05:11:31;96566.53;;;13.90;66.60
3260;BME280;22469;48.150;14.004;2023-03-14T05:13:59;96564.69;;;13.92;67.53
3260;BME280;22469;48.150;14.004;2023-03-14T05:16:26;96574.47;;;13.87;67.53
3260;BME280;22469;48.150;14.004;2023-03-14T05:18:53;96567.59;;;13.62;69.01
3260;BME280;22469;48.150;14.004;2023-03-14T05:21:20;96558.03;;;13.64;68.93
3260;BME280;22469;48.150;14.004;2023-03-14T05:23:47;96550.91;;;13.68;68.46
3260;BME280;22469;48.150;14.004;2023-03-14T05:26:14;96547.91;;;13.36;70.07
3260;BME280;22469;48.150;14.004;2023-03-14T05:28:43;96539.47;;;13.34;70.66
3260;BME280;22469;48.150;14.004;2023-03-14T05:31:10;96551.19;;;13.25;71.45
3260;BME280;22469;48.150;14.004;2023-03-14T05:33:37;96559.81;;;13.11;72.32
3260;BME280;22469;48.150;14.004;2023-03-14T05:36:05;96548.56;;;13.12;72.64
3260;BME280;22469;48.150;14.004;2023-03-14T05:38:33;96546.31;;;13.08;73.02
3260;BME280;22469;48.150;14.004;2023-03-14T05:41:00;96545.22;;;13.24;72.16
3260;BME280;22469;48.150;14.004;2023-03-14T05:43:27;96537.00;;;13.32;71.76
3260;BME280;22469;48.150;14.004;2023-03-14T05:45:54;96531.13;;;13.30;72.14
3260;BME280;22469;48.150;14.004;2023-03-14T05:48:21;96532.50;;;13.09;73.53
3260;BME280;22469;48.150;14.004;2023-03-14T05:50:53;96530.38;;;13.02;73.91
3260;BME280;22469;48.150;14.004;2023-03-14T05:53:21;96521.88;;;12.88;74.79
3260;BME280;22469;48.150;14.004;2023-03-14T05:55:54;96521.59;;;12.52;76.63
3260;BME280;22469;48.150;14.004;2023-03-14T05:58:24;96523.84;;;12.57;76.71
3260;BME280;22469;48.150;14.004;2023-03-14T06:00:51;96526.03;;;12.36;77.90
3260;BME280;22469;48.150;14.004;2023-03-14T06:03:18;96520.72;;;12.39;77.89
3260;BME280;22469;48.150;14.004;2023-03-14T06:05:45;96516.50;;;12.65;77.13
3260;BME280;22469;48.150;14.004;2023-03-14T06:08:12;96515.69;;;12.77;76.13
3260;BME280;22469;48.150;14.004;2023-03-14T06:10:42;96498.00;;;12.86;75.00
3260;BME280;22469;48.150;14.004;2023-03-14T06:13:09;96484.72;;;12.92;74.52
3260;BME280;22469;48.150;14.004;2023-03-14T06:15:36;96462.59;;;13.02;74.14
3260;BME280;22469;48.150;14.004;2023-03-14T06:18:03;96458.59;;;12.98;73.62
3260;BME280;22469;48.150;14.004;2023-03-14T06:20:30;96460.66;;;12.93;73.93
3260;BME280;22469;48.150;14.004;2023-03-14T06:22:57;96457.94;;;12.81;74.37
3260;BME280;22469;48.150;14.004;2023-03-14T06:25:24;96448.59;;;12.93;73.67
3260;BME280;22469;48.150;14.004;2023-03-14T06:27:51;96446.75;;;12.95;73.43
3260;BME280;22469;48.150;14.004;2023-03-14T06:30:18;96449.84;;;13.00;72.94
3260;BME280;22469;48.150;14.004;2023-03-14T06:32:45;96436.44;;;12.95;72.83
3260;BME280;22469;48.150;14.004;2023-03-14T06:35:13;96435.53;;;13.09;72.42
3260;BME280;22469;48.150;14.004;2023-03-14T06:37:40;96448.31;;;13.11;72.68
3260;BME280;22469;48.150;14.004;2023-03-14T06:40:09;96446.22;;;13.16;72.30
3260;BME280;22469;48.150;14.004;2023-03-14T06:42:37;96450.25;;;13.20;71.83
3260;BME280;22469;48.150;14.004;2023-03-14T06:45:05;96449.84;;;13.13;72.06
3260;BME280;22469;48.150;14.004;2023-03-14T06:47:33;96458.69;;;13.09;72.07
3260;BME280;22469;48.150;14.004;2023-03-14T06:49:59;96467.22;;;12.84;72.93
3260;BME280;22469;48.150;14.004;2023-03-14T06:52:26;96473.78;;;12.63;74.03
3260;BME280;22469;48.150;14.004;2023-03-14T06:54:54;96480.81;;;12.86;73.28
3260;BME280;22469;48.150;14.004;2023-03-14T06:57:21;96482.97;;;12.40;74.71
3260;BME280;22469;48.150;14.004;2023-03-14T06:59:48;96475.38;;;12.24;75.67
3260;BME280;22469;48.150;14.004;2023-03-14T07:02:15;96465.56;;;12.70;74.17
3260;BME280;22469;48.150;14.004;2023-03-14T07:04:42;96458.91;;;12.93;73.03
3260;BME280;22469;48.150;14.004;2023-03-14T07:07:09;96453.84;;;12.92;72.83
3260;BME280;22469;48.150;14.004;2023-03-14T07:09:36;96453.97;;;13.03;72.18
3260;BME280;22469;48.150;14.004;2023-03-14T07:12:03;96453.03;;;13.17;72.13
3260;BME280;22469;48.150;14.004;2023-03-14T07:14:30;96448.38;;;13.22;71.51
3260;BME280;22469;48.150;14.004;2023-03-14T07:16:57;96451.38;;;13.16;72.05
3260;BME280;22469;48.150;14.004;2023-03-14T07:19:25;96462.66;;;13.27;71.80
3260;BME280;22469;48.150;14.004;2023-03-14T07:21:52;96475.81;;;13.36;71.50
3260;BME280;22469;48.150;14.004;2023-03-14T07:24:19;96482.88;;;13.19;72.12
3260;BME280;22469;48.150;14.004;2023-03-14T07:26:46;96490.81;;;13.03;72.55
3260;BME280;22469;48.150;14.004;2023-03-14T07:29:13;96485.84;;;12.88;73.60
3260;BME280;22469;48.150;14.004;2023-03-14T07:31:40;96493.66;;;12.73;74.00
3260;BME280;22469;48.150;14.004;2023-03-14T07:34:07;96505.09;;;12.82;74.45
3260;BME280;22469;48.150;14.004;2023-03-14T07:36:34;96514.56;;;12.94;73.81
3260;BME280;22469;48.150;14.004;2023-03-14T07:39:01;96512.50;;;12.87;73.75
3260;BME280;22469;48.150;14.004;2023-03-14T07:41:28;96525.94;;;12.65;74.66
3260;BME280;22469;48.150;14.004;2023-03-14T07:43:55;96539.09;;;12.33;76.68
3260;BME280;22469;48.150;14.004;2023-03-14T07:46:22;96529.25;;;12.40;76.43
3260;BME280;22469;48.150;14.004;2023-03-14T07:48:49;96531.69;;;12.55;75.72
3260;BME280;22469;48.150;14.004;2023-03-14T07:51:16;96532.16;;;12.48;76.17
3260;BME280;22469;48.150;14.004;2023-03-14T07:53:43;96538.03;;;12.50;75.85
3260;BME280;22469;48.150;14.004;2023-03-14T07:56:13;96533.81;;;12.49;75.83
3260;BME280;22469;48.150;14.004;2023-03-14T07:58:40;96546.28;;;12.55;75.17
3260;BME280;22469;48.150;14.004;2023-03-14T08:01:07;96552.50;;;12.65;74.65
3260;BME280;22469;48.150;14.004;2023-03-14T08:03:34;96555.81;;;12.80;74.15
3260;BME280;22469;48.150;14.004;2023-03-14T08:06:01;96539.06;;;12.87;73.75
3260;BME280;22469;48.150;14.004;2023-03-14T08:08:28;96533.53;;;12.93;73.27
3260;BME280;22469;48.150;14.004;2023-03-14T08:10:55;96534.78;;;13.00;73.03
3260;BME280;22469;48.150;14.004;2023-03-14T08:13:22;96530.25;;;13.04;72.72
3260;BME280;22469;48.150;14.004;2023-03-14T08:15:52;96533.31;;;13.09;72.42
3260;BME280;22469;48.150;14.004;2023-03-14T08:18:19;96533.03;;;13.01;72.40
3260;BME280;22469;48.150;14.004;2023-03-14T08:20:46;96542.88;;;12.94;72.84
3260;BME280;22469;48.150;14.004;2023-03-14T08:23:13;96545.69;;;12.64;73.60
3260;BME280;22469;48.150;14.004;2023-03-14T08:25:40;96535.75;;;12.85;73.01
3260;BME280;22469;48.150;14.004;2023-03-14T08:28:07;96539.84;;;12.75;72.83
3260;BME280;22469;48.150;14.004;2023-03-14T08:30:34;96538.31;;;12.72;72.68
3260;BME280;22469;48.150;14.004;2023-03-14T08:33:01;96538.22;;;12.74;72.63
3260;BME280;22469;48.150;14.004;2023-03-14T08:35:29;96544.28;;;12.73;72.14
3260;BME280;22469;48.150;14.004;2023-03-14T08:37:56;96537.06;;;12.78;72.08
3260;BME280;22469;48.150;14.004;2023-03-14T08:40:23;96533.81;;;12.89;71.58
3260;BME280;22469;48.150;14.004;2023-03-14T08:42:50;96533.53;;;12.93;70.94
3260;BME280;22469;48.150;14.004;2023-03-14T08:45:17;96538.94;;;12.89;71.29
3260;BME280;22469;48.150;14.004;2023-03-14T08:47:45;96530.94;;;12.93;71.12
3260;BME280;22469;48.150;14.004;2023-03-14T08:50:13;96535.97;;;12.95;71.05
3260;BME280;22469;48.150;14.004;2023-03-14T08:52:42;96539.28;;;12.97;70.93
3260;BME280;22469;48.150;14.004;2023-03-14T08:55:10;96538.75;;;12.92;71.17
3260;BME280;22469;48.150;14.004;2023-03-14T08:57:37;96538.94;;;12.89;70.69
3260;BME280;22469;48.150;14.004;2023-03-14T09:00:04;96537.63;;;12.83;70.71
3260;BME280;22469;48.150;14.004;2023-03-14T09:02:41;96547.28;;;12.79;70.88
3260;BME280;22469;48.150;14.004;2023-03-14T09:05:10;96544.59;;;12.27;71.28
3260;BME280;22469;48.150;14.004;2023-03-14T09:07:39;96553.94;;;12.42;71.46
3260;BME280;22469;48.150;14.004;2023-03-14T09:10:07;96548.75;;;12.56;70.97
3260;BME280;22469;48.150;14.004;2023-03-14T09:12:35;96560.25;;;12.51;70.81
3260;BME280;22469;48.150;14.004;2023-03-14T09:15:03;96572.16;;;12.25;71.41
3260;BME280;22469;48.150;14.004;2023-03-14T09:17:30;96569.22;;;12.17;71.57
3260;BME280;22469;48.150;14.004;2023-03-14T09:19:58;96578.53;;;11.91;72.95
3260;BME280;22469;48.150;14.004;2023-03-14T09:22:26;96575.38;;;11.43;74.33
3260;BME280;22469;48.150;14.004;2023-03-14T09:24:53;96574.66;;;11.69;74.39
3260;BME280;22469;48.150;14.004;2023-03-14T09:27:20;96576.34;;;11.84;73.70
3260;BME280;22469;48.150;14.004;2023-03-14T09:29:47;96584.56;;;11.61;73.65
3260;BME280;22469;48.150;14.004;2023-03-14T09:32:14;96584.72;;;11.72;74.85
3260;BME280;22469;48.150;14.004;2023-03-14T09:34:41;96577.16;;;11.85;74.39
3260;BME280;22469;48.150;14.004;2023-03-14T09:37:08;96576.50;;;11.96;74.32
3260;BME280;22469;48.150;14.004;2023-03-14T09:39:35;96578.63;;;12.03;73.52
3260;BME280;22469;48.150;14.004;2023-03-14T09:42:05;96568.88;;;11.80;74.72
3260;BME280;22469;48.150;14.004;2023-03-14T09:44:37;96568.78;;;12.10;74.29
3260;BME280;22469;48.150;14.004;2023-03-14T09:47:09;96566.59;;;12.18;73.33
3260;BME280;22469;48.150;14.004;2023-03-14T09:49:42;96581.28;;;12.02;73.93
3260;BME280;22469;48.150;14.004;2023-03-14T09:52:31;96578.25;;;12.09;74.00
3260;BME280;22469;48.150;14.004;2023-03-14T09:55:02;96580.16;;;12.20;74.03
3260;BME280;22469;48.150;14.004;2023-03-14T09:57:34;96570.59;;;12.22;74.10
3260;BME280;22469;48.150;14.004;2023-03-14T10:00:13;96570.53;;;12.09;74.28
3260;BME280;22469;48.150;14.004;2023-03-14T10:02:55;96561.97;;;12.38;73.53
3260;BME280;22469;48.150;14.004;2023-03-14T10:05:25;96570.09;;;12.44;73.54
3260;BME280;22469;48.150;14.004;2023-03-14T10:07:54;96569.63;;;12.52;73.09
3260;BME280;22469;48.150;14.004;2023-03-14T10:10:24;96570.44;;;12.52;73.19
3260;BME280;22469;48.150;14.004;2023-03-14T10:12:58;96560.28;;;12.37;73.28
3260;BME280;22469;48.150;14.004;2023-03-14T10:15:31;96567.44;;;12.46;73.20
3260;BME280;22469;48.150;14.004;2023-03-14T10:18:01;96564.72;;;12.35;73.28
3260;BME280;22469;48.150;14.004;2023-03-14T10:20:35;96567.06;;;11.96;74.30
3260;BME280;22469;48.150;14.004;2023-03-14T10:25:44;96569.38;;;11.87;74.35
3260;BME280;22469;48.150;14.004;2023-03-14T10:30:54;96575.91;;;11.62;75.19
3260;BME280;22469;48.150;14.004;2023-03-14T10:33:25;96567.84;;;11.54;75.14
3260;BME280;22469;48.150;14.004;2023-03-14T10:35:59;96562.00;;;11.80;74.33
3260;BME280;22469;48.150;14.004;2023-03-14T10:38:33;96557.06;;;11.92;73.73
3260;BME280;22469;48.150;14.004;2023-03-14T10:41:03;96549.16;;;11.95;73.48
3260;BME280;22469;48.150;14.004;2023-03-14T10:43:43;96558.16;;;11.73;73.93
3260;BME280;22469;48.150;14.004;2023-03-14T10:46:18;96550.66;;;11.84;73.64
3260;BME280;22469;48.150;14.004;2023-03-14T10:48:46;96542.56;;;11.91;72.76
3260;BME280;22469;48.150;14.004;2023-03-14T10:51:27;96539.72;;;11.95;73.13
3260;BME280;22469;48.150;14.004;2023-03-14T10:54:01;96543.28;;;12.07;72.75
3260;BME280;22469;48.150;14.004;2023-03-14T10:56:36;96541.16;;;11.99;72.84
3260;BME280;22469;48.150;14.004;2023-03-14T10:59:07;96541.63;;;12.06;72.81
3260;BME280;22469;48.150;14.004;2023-03-14T11:01:54;96537.69;;;12.00;72.51
3260;BME280;22469;48.150;14.004;2023-03-14T11:07:16;96535.41;;;11.38;73.57
3260;BME280;22469;48.150;14.004;2023-03-14T11:13:17;96533.09;;;11.48;74.21
3260;BME280;22469;48.150;14.004;2023-03-14T11:22:28;96546.41;;;11.69;74.40
3260;BME280;22469;48.150;14.004;2023-03-14T11:25:37;96552.38;;;11.70;74.19
3260;BME280;22469;48.150;14.004;2023-03-14T11:28:41;96540.06;;;11.75;73.71
3260;BME280;22469;48.150;14.004;2023-03-14T11:31:31;96536.50;;;11.77;73.54
3260;BME280;22469;48.150;14.004;2023-03-14T11:34:27;96533.31;;;11.59;73.57
3260;BME280;22469;48.150;14.004;2023-03-14T11:37:22;96537.69;;;11.72;73.46
3260;BME280;22469;48.150;14.004;2023-03-14T11:40:17;96530.09;;;11.70;72.69
3260;BME280;22469;48.150;14.004;2023-03-14T11:43:24;96536.03;;;11.42;73.95
3260;BME280;22469;48.150;14.004;2023-03-14T11:45:48;96539.63;;;11.39;75.15
3260;BME280;22469;48.150;14.004;2023-03-14T11:51:15;96541.72;;;11.33;75.47
3260;BME280;22469;48.150;14.004;2023-03-14T11:56:29;96529.34;;;11.39;75.22
3260;BME280;22469;48.150;14.004;2023-03-14T11:59:09;96542.16;;;11.25;75.39
3260;BME280;22469;48.150;14.004;2023-03-14T12:01:54;96541.38;;;10.95;77.25
3260;BME280;22469;48.150;14.004;2023-03-14T12:04:53;96534.84;;;11.33;76.24
3260;BME280;22469;48.150;14.004;2023-03-14T12:10:46;96529.22;;;11.27;75.35
3260;BME280;22469;48.150;14.004;2023-03-14T12:13:21;96524.94;;;11.42;74.74
3260;BME280;22469;48.150;14.004;2023-03-14T12:15:54;96514.94;;;11.51;74.30
3260;BME280;22469;48.150;14.004;2023-03-14T12:18:30;96508.34;;;11.61;74.04
3260;BME280;22469;48.150;14.004;2023-03-14T12:21:04;96499.91;;;11.88;72.40
3260;BME280;22469;48.150;14.004;2023-03-14T12:23:51;96496.97;;;11.80;72.05
3260;BME280;22469;48.150;14.004;2023-03-14T12:26:22;96488.16;;;11.70;71.75
3260;BME280;22469;48.150;14.004;2023-03-14T12:39:35;96468.97;;;12.44;71.01
3260;BME280;22469;48.150;14.004;2023-03-14T12:42:17;96472.09;;;12.49;70.64
3260;BME280;22469;48.150;14.004;2023-03-14T12:45:34;96480.44;;;12.52;70.63
3260;BME280;22469;48.150;14.004;2023-03-14T12:48:23;96479.56;;;12.79;69.86
3260;BME280;22469;48.150;14.004;2023-03-14T12:50:55;96483.66;;;12.81;69.91
3260;BME280;22469;48.150;14.004;2023-03-14T12:56:23;96491.09;;;12.99;68.46
3260;BME280;22469;48.150;14.004;2023-03-14T13:02:10;96488.84;;;12.94;68.58
3260;BME280;22469;48.150;14.004;2023-03-14T13:07:32;96477.22;;;13.14;67.85
3260;BME280;22469;48.150;14.004;2023-03-14T13:13:08;96457.75;;;13.23;68.13
3260;BME280;22469;48.150;14.004;2023-03-14T13:15:48;96434.81;;;13.33;66.96
3260;BME280;22469;48.150;14.004;2023-03-14T13:18:29;96421.81;;;13.21;66.79
3260;BME280;22469;48.150;14.004;2023-03-14T13:23:38;96428.00;;;13.19;66.91
3260;BME280;22469;48.150;14.004;2023-03-14T13:26:13;96409.91;;;13.20;66.38
3260;BME280;22469;48.150;14.004;2023-03-14T13:28:41;96420.72;;;13.00;66.44
3260;BME280;22469;48.150;14.004;2023-03-14T13:31:23;96426.56;;;12.76;67.07
3260;BME280;22469;48.150;14.004;2023-03-14T13:34:02;96433.34;;;12.77;67.16
3260;BME280;22469;48.150;14.004;2023-03-14T13:36:35;96441.09;;;12.90;67.11
3260;BME280;22469;48.150;14.004;2023-03-14T13:39:09;96434.59;;;12.97;65.98
3260;BME280;22469;48.150;14.004;2023-03-14T13:41:41;96448.09;;;13.01;66.07
3260;BME280;22469;48.150;14.004;2023-03-14T13:44:17;96430.88;;;12.89;65.45
3260;BME280;22469;48.150;14.004;2023-03-14T13:47:03;96423.78;;;13.05;66.36
3260;BME280;22469;48.150;14.004;2023-03-14T13:49:33;96414.22;;;13.07;65.56
3260;BME280;22469;48.150;14.004;2023-03-14T13:52:03;96421.94;;;13.07;65.83
3260;BME280;22469;48.150;14.004;2023-03-14T13:54:46;96410.63;;;13.10;65.94
3260;BME280;22469;48.150;14.004;2023-03-14T13:57:13;96414.03;;;13.10;65.17
3260;BME280;22469;48.150;14.004;2023-03-14T13:59:40;96409.28;;;13.04;65.04
3260;BME280;22469;48.150;14.004;2023-03-14T14:02:14;96406.09;;;13.13;65.35
3260;BME280;22469;48.150;14.004;2023-03-14T14:04:44;96399.22;;;13.26;65.07
3260;BME280;22469;48.150;14.004;2023-03-14T14:07:15;96400.22;;;13.37;65.15
3260;BME280;22469;48.150;14.004;2023-03-14T14:09:47;96392.88;;;13.43;64.69
3260;BME280;22469;48.150;14.004;2023-03-14T14:12:25;96395.91;;;13.37;64.26
3260;BME280;22469;48.150;14.004;2023-03-14T14:15:00;96396.91;;;13.47;64.50
3260;BME280;22469;48.150;14.004;2023-03-14T14:20:04;96391.91;;;13.57;65.10
3260;BME280;22469;48.150;14.004;2023-03-14T14:22:34;96395.81;;;13.63;63.33
3260;BME280;22469;48.150;14.004;2023-03-14T14:25:02;96398.13;;;13.55;64.61
3260;BME280;22469;48.150;14.004;2023-03-14T14:27:37;96388.72;;;13.54;63.93
3260;BME280;22469;48.150;14.004;2023-03-14T14:30:27;96387.63;;;13.45;64.23